Strona główna
METAR-TAF:

METAR-TAF

Lotnisko :

Port lotniczy Lansing

Lansing, Michigan, Stany Zjednoczone

Szerokość geograficzna: 42-46-49N, Długość geograficzna: 084-34-44W, wysokość: 262 m

Aktualna obserwacja pogody

Raport powstał 41 minut temu, godzina 12:53 UTC
Cisza
Temperatura 27°C
Wilgotność 62%
Ciśnienie 1016 hPa
Widzialność: 16.1 km
bezchmurnie

METAR: KLAN 071253Z 00000KT 10SM CLR 27/19 A3000 RMK AO2 SLP150 T02720194

czas: 09:34 (13:34 UTC)

Prognoza

Raport powstał 1 godzina i 54 minut temu, godzina 11:40 UTC
Prognoza ważna od 07 godzina 12 UTC do 08 godzina 12 UTC
Wiatr 3 kt z kierunków zmiennych
Widzialność: 10 km
bezchmurnie
Od 07 godzina 2200 UTC
Wiatr 4 kt z kierunków zmiennych
Widzialność: 10 km
Przerywane chmury na wysokości 4000 ft, Cumulonimbus.
burza w pobliże
Od 08 godzina 0100 UTC
Wiatr 3 kt z kierunków zmiennych
Widzialność: 10 km
Rozproszone chmury na wysokości 5000 ft

TAF: KLAN 071140Z 0712/0812 VRB03KT P6SM SKC FM072200 VRB04KT P6SM VCTS BKN040CB FM080100 VRB03KT P6SM SCT050

Obserwacja i prognoza pogody dla ponad 4000 lotnisk (raport METAR i TAF).

Dostępne stacje oznaczono żółtymi i czerwonymi punktami na mapie.

Najedź kursorem aby zobaczyć nazwę stacji.

Kliknij aby zobaczyć obserwacje i prognozy pogody.

Aby zmienić mapę: kliknij na zielony przycisk z czarnym krzyżykiem, aby powiększyć; na zielony przycisk z myślnikiem, aby pomniejszyć; na zielone strzałki, aby przejść do map sąsiednich.


METAR-TAF: